Time;durP1;ratioP1;P1;durP2;ratioP2;P2;SDS_P1;SDS_P2;PMS_P1;PMS_P2;Temp;Humidity;BMP_temperature;BMP_pressure;BME280_temperature;BME280_humidity;BME280_pressure;Samples;Min_cycle;Max_cycle;Signal;HPM_P1;HPM_P2
2022/04/29 00:00:36;;;;;;;9.90;7.83;;;15.40;47.40;;;;;;5035239;28;20446;-88
2022/04/29 00:03:04;;;;;;;12.43;8.40;;;15.40;47.50;;;;;;5014050;28;20451;-89
2022/04/29 00:05:31;;;;;;;8.13;6.83;;;15.40;47.50;;;;;;5022810;28;20496;-88
2022/04/29 00:07:58;;;;;;;11.23;7.53;;;15.30;47.60;;;;;;5008413;28;20980;-88
2022/04/29 00:10:25;;;;;;;7.20;6.50;;;15.30;47.60;;;;;;5008257;28;20474;-90
2022/04/29 00:12:53;;;;;;;7.53;6.73;;;15.30;47.90;;;;;;5016309;28;20888;-88
2022/04/29 00:15:21;;;;;;;7.90;6.90;;;15.20;47.90;;;;;;5006374;28;20982;-88
2022/04/29 00:17:48;;;;;;;7.13;6.33;;;15.20;48.00;;;;;;5034615;28;20462;-87
2022/04/29 00:20:16;;;;;;;9.43;6.97;;;15.20;48.30;;;;;;5035903;28;20476;-87
2022/04/29 00:22:44;;;;;;;8.53;7.27;;;15.20;48.20;;;;;;5007605;28;20533;-88
2022/04/29 00:25:12;;;;;;;12.70;6.70;;;15.20;48.10;;;;;;5001274;28;20472;-88
2022/04/29 00:27:40;;;;;;;7.70;6.97;;;15.20;47.90;;;;;;5012116;28;20970;-88
2022/04/29 00:30:12;;;;;;;6.73;6.03;;;15.10;47.80;;;;;;5005777;28;20594;-87
2022/04/29 00:32:40;;;;;;;7.53;6.27;;;15.00;47.80;;;;;;5005110;28;20457;-87
2022/04/29 00:35:09;;;;;;;8.10;6.80;;;14.90;47.70;;;;;;5015686;28;20472;-89
2022/04/29 00:37:44;;;;;;;8.47;6.60;;;14.90;47.70;;;;;;5034655;28;20470;-87
2022/04/29 00:40:14;;;;;;;7.90;7.20;;;14.90;47.70;;;;;;5030252;28;20826;-89
2022/04/29 00:42:41;;;;;;;8.50;7.23;;;14.90;47.70;;;;;;4991150;28;20457;-87
2022/04/29 00:45:10;;;;;;;9.60;7.40;;;14.80;47.60;;;;;;5014630;28;20501;-89
2022/04/29 00:47:37;;;;;;;10.90;6.50;;;14.80;47.50;;;;;;5019678;28;20451;-87
2022/04/29 00:50:04;;;;;;;9.47;7.07;;;14.70;47.80;;;;;;5035177;28;20450;-87
2022/04/29 00:52:33;;;;;;;9.07;6.87;;;14.70;48.00;;;;;;5033511;28;20460;-87
2022/04/29 00:55:07;;;;;;;10.50;7.53;;;14.70;47.90;;;;;;5033394;28;21220;-85
2022/04/29 00:57:40;;;;;;;10.67;6.80;;;14.60;48.10;;;;;;5007094;28;20448;-88
2022/04/29 01:00:11;;;;;;;9.10;7.23;;;14.50;48.30;;;;;;5029746;28;20461;-88
2022/04/29 01:02:41;;;;;;;10.27;7.57;;;14.50;48.30;;;;;;5004106;28;20453;-88
2022/04/29 01:05:11;;;;;;;10.87;6.83;;;14.50;48.40;;;;;;5013245;28;20564;-87
2022/04/29 01:07:39;;;;;;;7.10;6.40;;;14.40;48.50;;;;;;4999454;28;20520;-88
2022/04/29 01:10:08;;;;;;;10.13;6.60;;;14.40;48.40;;;;;;5004350;28;21431;-87
2022/04/29 01:12:36;;;;;;;7.77;6.90;;;14.30;48.30;;;;;;5017296;28;20490;-88
2022/04/29 01:15:05;;;;;;;8.47;6.70;;;14.30;48.80;;;;;;5001835;28;20477;-89
2022/04/29 01:17:35;;;;;;;11.70;7.57;;;14.20;49.00;;;;;;5014702;28;20563;-88
2022/04/29 01:20:03;;;;;;;13.53;7.90;;;14.20;48.80;;;;;;5031611;28;20461;-88
2022/04/29 01:22:33;;;;;;;7.50;6.40;;;14.30;48.90;;;;;;4988809;28;20503;-88
2022/04/29 01:25:00;;;;;;;8.80;7.10;;;14.30;48.80;;;;;;5008059;28;21074;-87
2022/04/29 01:27:28;;;;;;;11.50;7.50;;;14.30;48.50;;;;;;5017222;28;20488;-88
2022/04/29 01:29:59;;;;;;;7.90;6.97;;;14.20;48.30;;;;;;4988388;28;20454;-87
2022/04/29 01:32:27;;;;;;;7.90;6.37;;;14.30;48.20;;;;;;5001158;28;20473;-87
2022/04/29 01:34:54;;;;;;;8.63;7.20;;;14.30;47.80;;;;;;5007766;28;20982;-88
2022/04/29 01:37:22;;;;;;;9.43;6.70;;;14.30;47.70;;;;;;4991457;28;20481;-88
2022/04/29 01:39:51;;;;;;;7.00;6.27;;;14.20;47.70;;;;;;4998280;28;20493;-87
2022/04/29 01:42:18;;;;;;;7.00;6.30;;;14.10;47.70;;;;;;5006009;28;20449;-89
2022/04/29 01:44:46;;;;;;;9.87;7.43;;;14.10;47.70;;;;;;5008268;28;20466;-86
2022/04/29 01:47:14;;;;;;;8.77;7.13;;;14.10;47.90;;;;;;5001190;28;20441;-88
2022/04/29 01:49:59;;;;;;;8.60;7.70;;;14.00;48.40;;;;;;5032505;28;20970;-88
2022/04/29 01:52:26;;;;;;;9.10;6.57;;;14.00;48.40;;;;;;5002904;28;20466;-88
2022/04/29 01:54:55;;;;;;;8.83;6.87;;;13.90;48.40;;;;;;5011559;28;21024;-90
2022/04/29 01:57:23;;;;;;;6.97;6.30;;;13.90;48.10;;;;;;4990226;28;20453;-87
2022/04/29 01:59:50;;;;;;;8.40;7.10;;;13.80;48.60;;;;;;5004779;28;20456;-88
2022/04/29 02:02:26;;;;;;;10.00;6.47;;;13.60;48.80;;;;;;5019260;28;20455;-89
2022/04/29 02:04:53;;;;;;;11.80;6.87;;;13.60;48.90;;;;;;5010291;28;20469;-88
2022/04/29 02:07:20;;;;;;;8.10;6.63;;;13.50;49.10;;;;;;5005276;28;20517;-87
2022/04/29 02:09:48;;;;;;;8.30;7.40;;;13.50;49.00;;;;;;4997310;28;20466;-88
2022/04/29 02:12:17;;;;;;;9.67;6.57;;;13.60;49.00;;;;;;5017536;28;20910;-88
2022/04/29 02:14:58;;;;;;;15.20;7.60;;;13.50;49.10;;;;;;5025125;28;20466;-87
2022/04/29 02:17:39;;;;;;;6.67;6.07;;;13.50;49.20;;;;;;4989814;28;20944;-87
2022/04/29 02:20:07;;;;;;;7.60;6.80;;;13.40;49.70;;;;;;5019103;28;20553;-88
2022/04/29 02:22:34;;;;;;;6.73;5.70;;;13.50;49.10;;;;;;5022041;28;20946;-89
2022/04/29 02:25:01;;;;;;;7.87;6.70;;;13.50;49.10;;;;;;4990575;28;20573;-87
2022/04/29 02:27:29;;;;;;;12.63;7.27;;;13.50;49.00;;;;;;5020183;28;20458;-87
2022/04/29 02:29:56;;;;;;;7.30;6.60;;;13.50;49.70;;;;;;5015132;28;20881;-90
2022/04/29 02:32:23;;;;;;;7.27;5.97;;;13.50;49.00;;;;;;5010056;28;20465;-87
2022/04/29 02:34:50;;;;;;;7.23;6.50;;;13.50;49.00;;;;;;5008174;28;20466;-87
2022/04/29 02:37:17;;;;;;;7.03;6.27;;;13.40;49.50;;;;;;5017981;28;21175;-87
2022/04/29 02:39:48;;;;;;;7.27;6.27;;;13.30;49.80;;;;;;5001786;28;20482;-88
2022/04/29 02:42:15;;;;;;;8.40;6.27;;;13.30;49.70;;;;;;5020363;28;20927;-88
2022/04/29 02:44:43;;;;;;;7.27;6.40;;;13.30;49.60;;;;;;5022053;28;21222;-88
2022/04/29 02:47:12;;;;;;;8.70;6.30;;;13.30;49.70;;;;;;5011815;28;21952;-87
2022/04/29 02:49:41;;;;;;;8.40;6.87;;;13.30;49.90;;;;;;5034657;28;20482;-87
2022/04/29 02:52:09;;;;;;;9.20;6.33;;;13.30;49.70;;;;;;5006918;28;20496;-87
2022/04/29 02:54:37;;;;;;;6.63;5.67;;;13.30;49.50;;;;;;5014916;28;20981;-88
2022/04/29 02:57:07;;;;;;;7.73;6.93;;;13.30;49.50;;;;;;4986325;28;20828;-88
2022/04/29 02:59:39;;;;;;;10.13;6.87;;;13.30;49.60;;;;;;5037464;28;20457;-88
2022/04/29 03:02:08;;;;;;;8.90;6.33;;;13.30;49.90;;;;;;5011887;28;20501;-88
2022/04/29 03:04:37;;;;;;;8.53;6.80;;;13.20;49.90;;;;;;5023307;28;20552;-88
2022/04/29 03:07:04;;;;;;;11.60;7.10;;;13.20;50.10;;;;;;5003146;28;20500;-87
2022/04/29 03:09:47;;;;;;;8.70;6.93;;;13.10;50.40;;;;;;5003460;28;20430;-87
2022/04/29 03:12:15;;;;;;;7.80;6.70;;;13.10;50.40;;;;;;5015552;28;20996;-88
2022/04/29 03:14:43;;;;;;;9.50;7.23;;;13.10;50.40;;;;;;5004029;28;20470;-87
2022/04/29 03:18:17;;;;;;;6.80;5.70;;;13.10;50.40;;;;;;5008168;28;20526;-88
2022/04/29 03:19:59;;;;;;;7.40;6.53;;;13.10;50.30;;;;;;5022928;28;21235;-87
2022/04/29 03:22:27;;;;;;;9.10;7.27;;;13.10;50.20;;;;;;5003685;28;20446;-87
2022/04/29 03:24:54;;;;;;;7.93;6.80;;;13.00;50.10;;;;;;5018713;28;20477;-88
2022/04/29 03:27:21;;;;;;;15.70;7.53;;;13.10;50.80;;;;;;5014897;28;20439;-87
2022/04/29 03:29:49;;;;;;;8.63;6.97;;;13.00;50.00;;;;;;5005360;28;20494;-88
2022/04/29 03:32:18;;;;;;;8.50;7.03;;;13.00;49.80;;;;;;5017481;28;20502;-90
2022/04/29 03:35:05;;;;;;;10.07;8.30;;;13.10;49.70;;;;;;5005824;28;21180;-89
2022/04/29 03:37:33;;;;;;;11.03;8.33;;;13.10;49.50;;;;;;5023725;28;20500;-89
2022/04/29 03:40:00;;;;;;;12.07;9.33;;;13.00;49.30;;;;;;5005693;28;20453;-87
2022/04/29 03:42:29;;;;;;;15.10;9.20;;;13.10;49.50;;;;;;5002477;28;20449;-88
2022/04/29 03:44:56;;;;;;;10.40;8.77;;;13.00;49.30;;;;;;5011374;28;20477;-87
2022/04/29 03:47:25;;;;;;;8.27;7.20;;;13.00;49.30;;;;;;5025681;28;20830;-87
2022/04/29 03:50:15;;;;;;;9.20;7.57;;;13.00;49.40;;;;;;5030664;28;21064;-88
2022/04/29 03:53:04;;;;;;;9.07;8.17;;;13.00;49.10;;;;;;5026610;28;20468;-88
2022/04/29 03:55:34;;;;;;;9.87;7.07;;;13.00;49.10;;;;;;5009107;28;20799;-90
2022/04/29 03:58:03;;;;;;;9.33;8.07;;;13.00;49.20;;;;;;5020032;28;20445;-88
2022/04/29 04:00:34;;;;;;;9.57;7.20;;;12.90;49.40;;;;;;5027008;28;20470;-89
2022/04/29 04:03:05;;;;;;;7.83;7.03;;;12.80;49.80;;;;;;5021027;28;20459;-87
2022/04/29 04:05:33;;;;;;;8.33;7.00;;;12.80;50.00;;;;;;5037342;28;20506;-88
2022/04/29 04:08:00;;;;;;;7.70;7.00;;;12.70;50.00;;;;;;5017239;28;20453;-87
2022/04/29 04:10:48;;;;;;;9.57;6.67;;;12.80;50.20;;;;;;5034443;28;20457;-88
2022/04/29 04:13:16;;;;;;;7.37;6.67;;;12.80;50.40;;;;;;5003305;28;20469;-88
2022/04/29 04:16:04;;;;;;;8.03;6.63;;;12.80;50.10;;;;;;5024041;28;20460;-88
2022/04/29 04:18:33;;;;;;;7.00;6.40;;;12.80;50.10;;;;;;5001451;28;20454;-88
2022/04/29 04:21:01;;;;;;;9.23;8.13;;;12.80;50.30;;;;;;5011207;28;20500;-88
2022/04/29 04:23:28;;;;;;;12.80;7.77;;;12.70;50.20;;;;;;5013674;28;20817;-90
2022/04/29 04:25:56;;;;;;;9.00;7.60;;;12.80;50.30;;;;;;5005730;28;20851;-88
2022/04/29 04:28:24;;;;;;;8.73;7.13;;;12.70;50.30;;;;;;5001532;28;20996;-89
2022/04/29 04:31:01;;;;;;;9.23;7.33;;;12.70;50.60;;;;;;5019757;28;20442;-89
2022/04/29 04:33:41;;;;;;;10.33;8.23;;;12.70;50.50;;;;;;5017949;28;20514;-88
2022/04/29 04:36:09;;;;;;;10.40;9.07;;;12.80;50.60;;;;;;4998914;28;20453;-90
2022/04/29 04:38:37;;;;;;;9.43;7.40;;;12.80;50.50;;;;;;4998967;28;20842;-88
2022/04/29 04:41:08;;;;;;;14.90;9.30;;;12.80;50.90;;;;;;5005240;28;20442;-88
2022/04/29 04:43:36;;;;;;;11.83;9.00;;;12.80;51.10;;;;;;4988592;28;20990;-88
2022/04/29 04:46:06;;;;;;;10.33;9.30;;;12.80;50.70;;;;;;5013578;28;20489;-88
2022/04/29 04:49:07;;;;;;;12.10;8.83;;;12.90;50.40;;;;;;5005669;28;20466;-88
2022/04/29 04:51:54;;;;;;;10.57;8.70;;;12.90;51.00;;;;;;5031799;28;20454;-88
2022/04/29 04:54:21;;;;;;;10.57;9.50;;;12.80;51.00;;;;;;4989777;28;20592;-89
2022/04/29 04:56:48;;;;;;;15.83;10.47;;;12.90;51.10;;;;;;4999279;28;20458;-88
2022/04/29 04:59:15;;;;;;;16.67;13.50;;;12.90;51.60;;;;;;4994180;28;20449;-88
2022/04/29 05:01:43;;;;;;;15.43;11.43;;;12.80;51.80;;;;;;5026401;28;20553;-86
2022/04/29 05:04:30;;;;;;;12.90;11.27;;;12.80;51.60;;;;;;4994959;28;20539;-87
2022/04/29 05:07:26;;;;;;;13.37;10.53;;;12.90;51.50;;;;;;5015985;28;20454;-86
2022/04/29 05:09:54;;;;;;;14.50;9.00;;;12.80;51.80;;;;;;4993608;28;20540;-87
2022/04/29 05:12:21;;;;;;;12.37;9.90;;;12.80;51.90;;;;;;5018813;28;20469;-88
2022/04/29 05:14:57;;;;;;;10.80;7.97;;;12.80;51.90;;;;;;5017644;28;20465;-88
2022/04/29 05:17:25;;;;;;;10.50;9.00;;;12.80;51.70;;;;;;5018744;28;20879;-87
2022/04/29 05:20:03;;;;;;;11.40;7.77;;;12.80;52.00;;;;;;5016754;28;20475;-88
2022/04/29 05:22:33;;;;;;;9.40;8.00;;;12.80;52.30;;;;;;5010309;28;20473;-87
2022/04/29 05:25:00;;;;;;;12.20;8.87;;;12.80;51.60;;;;;;4999850;28;20470;-86
2022/04/29 05:27:56;;;;;;;12.43;8.40;;;12.80;51.70;;;;;;5008171;28;20806;-87
2022/04/29 05:30:42;;;;;;;11.73;9.43;;;12.80;52.50;;;;;;5011229;28;20457;-87
2022/04/29 05:33:12;;;;;;;13.40;8.33;;;12.80;52.80;;;;;;5011709;28;20473;-86
2022/04/29 05:36:00;;;;;;;14.33;8.03;;;12.80;52.90;;;;;;5027495;28;20458;-86
2022/04/29 05:44:17;;;;;;;12.33;9.80;;;13.00;53.90;;;;;;5028749;28;21339;-87
2022/04/29 05:46:44;;;;;;;18.17;10.77;;;13.10;53.30;;;;;;5026559;28;20497;-87
2022/04/29 05:49:11;;;;;;;13.03;10.70;;;13.10;52.60;;;;;;5012864;28;20768;-87
2022/04/29 05:51:44;;;;;;;11.63;8.90;;;13.20;53.30;;;;;;4979463;28;20560;-87
2022/04/29 05:54:12;;;;;;;12.57;10.00;;;13.30;53.40;;;;;;4996674;28;20484;-86
2022/04/29 05:56:40;;;;;;;14.83;10.00;;;13.30;53.30;;;;;;4997272;28;20446;-88
2022/04/29 05:59:11;;;;;;;14.60;10.03;;;13.40;53.30;;;;;;4981669;28;20453;-88
2022/04/29 06:01:57;;;;;;;11.90;9.17;;;13.50;53.40;;;;;;5004282;28;20581;-87
2022/04/29 06:04:32;;;;;;;11.23;10.03;;;13.50;53.30;;;;;;5012504;28;20477;-87
2022/04/29 06:07:00;;;;;;;12.47;9.03;;;13.50;52.80;;;;;;4985068;28;20469;-87
2022/04/29 06:09:27;;;;;;;10.90;8.93;;;13.60;52.80;;;;;;5012891;28;20461;-87
2022/04/29 06:11:56;;;;;;;10.37;8.73;;;13.40;53.60;;;;;;4989659;28;20456;-87
2022/04/29 06:14:29;;;;;;;14.93;11.80;;;13.20;54.00;;;;;;5011925;28;20481;-87
2022/04/29 06:17:16;;;;;;;15.07;11.10;;;12.80;55.00;;;;;;5000558;28;20457;-88
2022/04/29 06:19:52;;;;;;;15.23;8.97;;;13.10;55.00;;;;;;5013633;28;20458;-85
2022/04/29 06:22:35;;;;;;;11.90;9.40;;;13.10;54.80;;;;;;5001402;28;20440;-87
2022/04/29 06:25:03;;;;;;;11.83;8.87;;;13.30;54.80;;;;;;5003445;28;21354;-88
2022/04/29 06:27:30;;;;;;;19.13;9.70;;;13.40;54.20;;;;;;5005061;28;20478;-88
2022/04/29 06:29:57;;;;;;;12.00;9.10;;;13.20;54.10;;;;;;5011328;28;20450;-87
2022/04/29 06:32:27;;;;;;;14.97;9.87;;;13.00;54.70;;;;;;4997599;28;20450;-87
2022/04/29 06:35:19;;;;;;;12.07;9.47;;;12.80;55.40;;;;;;5011478;28;20482;-88
2022/04/29 06:37:48;;;;;;;11.43;9.90;;;13.10;55.40;;;;;;5028836;28;21063;-86
2022/04/29 06:40:45;;;;;;;13.90;9.73;;;13.50;54.60;;;;;;5014355;28;20454;-89
2022/04/29 06:43:12;;;;;;;10.07;9.00;;;13.90;53.70;;;;;;5003760;28;20602;-88
2022/04/29 06:45:58;;;;;;;11.07;9.30;;;13.80;53.90;;;;;;5001841;28;20589;-88
2022/04/29 06:48:45;;;;;;;15.13;12.73;;;13.70;54.30;;;;;;5028876;28;20444;-88
2022/04/29 06:51:35;;;;;;;13.23;10.37;;;13.80;54.30;;;;;;5001849;28;21209;-89
2022/04/29 06:54:15;;;;;;;11.57;9.50;;;14.00;54.20;;;;;;4997862;28;20482;-87
2022/04/29 06:56:44;;;;;;;20.53;11.30;;;14.10;53.50;;;;;;5004151;28;20469;-88
2022/04/29 06:59:11;;;;;;;14.33;10.60;;;13.90;54.50;;;;;;4986561;28;21932;-88
2022/04/29 07:01:41;;;;;;;12.90;10.13;;;13.80;54.80;;;;;;5018943;28;21369;-88
2022/04/29 07:04:08;;;;;;;20.70;11.80;;;13.90;55.00;;;;;;5000769;28;20460;-88
2022/04/29 07:06:35;;;;;;;14.27;9.83;;;14.00;54.70;;;;;;5000801;28;20977;-88
2022/04/29 07:09:03;;;;;;;16.57;10.07;;;14.10;54.20;;;;;;5002590;28;20449;-88
2022/04/29 07:11:51;;;;;;;11.20;8.90;;;14.30;54.10;;;;;;5010971;28;20530;-87
2022/04/29 07:14:33;;;;;;;14.90;10.00;;;14.60;53.80;;;;;;5010639;28;20485;-89
2022/04/29 07:17:08;;;;;;;11.60;9.47;;;14.90;53.10;;;;;;5003689;28;20454;-88
2022/04/29 07:19:40;;;;;;;12.53;9.60;;;15.00;53.20;;;;;;4999283;28;20464;-88
2022/04/29 07:22:07;;;;;;;15.50;9.77;;;15.20;53.30;;;;;;5003819;28;20512;-87
2022/04/29 07:24:43;;;;;;;16.83;10.50;;;15.20;53.00;;;;;;5030844;28;20564;-90
2022/04/29 07:27:13;;;;;;;14.10;9.73;;;15.30;53.00;;;;;;4988373;28;20489;-88
2022/04/29 07:29:41;;;;;;;13.27;9.57;;;15.50;53.10;;;;;;5021932;28;20474;-88
2022/04/29 07:32:24;;;;;;;16.63;10.37;;;15.60;52.80;;;;;;4982925;28;20454;-88
2022/04/29 07:44:06;;;;;;;252.00;54.33;;;16.20;51.60;;;;;;4962447;28;20445;-88
2022/04/29 07:46:38;;;;;;;17.23;11.17;;;16.50;51.70;;;;;;4975592;28;20449;-88
2022/04/29 07:49:28;;;;;;;13.20;9.30;;;16.70;51.10;;;;;;5023874;28;20540;-88
2022/04/29 07:51:55;;;;;;;13.73;10.97;;;16.80;50.60;;;;;;5018954;28;20901;-88
2022/04/29 07:54:24;;;;;;;12.07;8.80;;;16.90;50.30;;;;;;4979277;28;20471;-88
2022/04/29 07:56:52;;;;;;;16.20;9.17;;;17.10;50.70;;;;;;4996747;28;20463;-89
2022/04/29 07:59:21;;;;;;;14.63;9.83;;;17.30;50.30;;;;;;5002532;28;20854;-89
2022/04/29 08:01:49;;;;;;;12.70;8.73;;;17.50;49.50;;;;;;4996830;28;20455;-87
2022/04/29 08:04:17;;;;;;;10.37;9.10;;;17.70;49.70;;;;;;5014908;28;20477;-87
2022/04/29 08:06:44;;;;;;;13.77;8.93;;;17.80;48.50;;;;;;5014229;28;20442;-88
2022/04/29 08:09:12;;;;;;;10.43;8.10;;;17.90;48.80;;;;;;4994438;28;20470;-89
2022/04/29 08:11:43;;;;;;;11.60;9.17;;;18.10;48.40;;;;;;4986846;28;21298;-89
2022/04/29 08:14:31;;;;;;;15.73;9.43;;;18.20;47.50;;;;;;5012183;28;20700;-89
2022/04/29 08:17:38;;;;;;;13.10;9.50;;;18.30;46.80;;;;;;5003917;28;20462;-89
2022/04/29 08:20:06;;;;;;;10.77;8.50;;;18.30;47.60;;;;;;5015887;28;20453;-88
2022/04/29 08:22:43;;;;;;;12.20;8.30;;;18.40;46.90;;;;;;4998262;28;20546;-89
2022/04/29 08:25:10;;;;;;;13.00;8.40;;;18.60;47.40;;;;;;5015998;28;20482;-89
2022/04/29 08:27:37;;;;;;;9.13;8.23;;;18.80;47.10;;;;;;5005341;28;20461;-88
2022/04/29 08:30:08;;;;;;;9.20;8.20;;;19.00;46.90;;;;;;5013068;28;20547;-88
2022/04/29 08:32:39;;;;;;;11.90;7.67;;;19.20;46.50;;;;;;5007776;28;20477;-91
2022/04/29 08:35:09;;;;;;;9.83;7.50;;;19.20;46.40;;;;;;5013271;28;20493;-89
2022/04/29 08:37:37;;;;;;;11.60;8.53;;;19.10;46.10;;;;;;5012028;28;20443;-89
2022/04/29 08:40:06;;;;;;;13.90;8.50;;;19.00;46.20;;;;;;4978609;28;20465;-89
2022/04/29 08:42:37;;;;;;;9.70;8.43;;;19.10;46.70;;;;;;4999650;28;20460;-88
2022/04/29 08:45:08;;;;;;;17.40;9.17;;;19.20;46.60;;;;;;4993891;28;20458;-89
2022/04/29 08:47:55;;;;;;;11.60;8.80;;;19.20;46.30;;;;;;5018766;28;20454;-89
2022/04/29 08:50:22;;;;;;;9.53;8.33;;;19.30;47.00;;;;;;5021583;28;20524;-89
2022/04/29 08:52:50;;;;;;;8.93;8.10;;;19.30;47.10;;;;;;4985632;28;20470;-87
2022/04/29 09:00:48;;;;;;;9.63;8.23;;;19.50;45.90;;;;;;5015445;28;20564;-90
2022/04/29 09:03:17;;;;;;;10.67;8.30;;;19.50;46.10;;;;;;5013564;28;20479;-90
2022/04/29 09:05:45;;;;;;;9.50;8.60;;;19.60;46.20;;;;;;5013127;28;20462;-89
2022/04/29 09:08:13;;;;;;;12.83;7.63;;;19.80;45.90;;;;;;5013807;28;20533;-90
2022/04/29 09:10:51;;;;;;;9.87;8.87;;;20.00;45.50;;;;;;5019879;28;20449;-91
2022/04/29 09:13:22;;;;;;;10.33;7.30;;;19.90;45.60;;;;;;5022960;28;20520;-89
2022/04/29 09:15:52;;;;;;;8.93;8.03;;;20.00;46.10;;;;;;5031799;28;20438;-90
2022/04/29 09:18:31;;;;;;;11.87;8.37;;;20.10;45.60;;;;;;5017584;28;20521;-92
2022/04/29 09:20:58;;;;;;;11.40;8.80;;;20.00;44.70;;;;;;5013884;28;20990;-90
2022/04/29 09:23:28;;;;;;;18.83;8.60;;;20.00;45.30;;;;;;5000308;28;20439;-92
2022/04/29 09:26:23;;;;;;;9.67;8.83;;;20.00;45.30;;;;;;4976942;28;21305;-89
2022/04/29 09:29:30;;;;;;;9.90;8.90;;;20.10;44.70;;;;;;4960400;28;20452;-88
2022/04/29 09:32:24;;;;;;;13.07;8.57;;;20.30;45.80;;;;;;4986512;28;21032;-90
2022/04/29 09:35:37;;;;;;;11.63;8.20;;;20.50;44.90;;;;;;4985350;28;20486;-90
2022/04/29 09:40:50;;;;;;;12.07;8.90;;;21.00;44.20;;;;;;5016668;28;20437;-91
2022/04/29 09:43:17;;;;;;;12.63;9.30;;;20.90;43.30;;;;;;5009013;28;20520;-90
2022/04/29 09:45:44;;;;;;;13.07;8.60;;;21.00;43.50;;;;;;5039022;28;20461;-92
2022/04/29 09:48:12;;;;;;;9.93;8.00;;;21.00;43.70;;;;;;4991761;28;20473;-90
2022/04/29 09:50:47;;;;;;;9.87;8.87;;;21.20;43.30;;;;;;5001433;28;20450;-90
2022/04/29 09:53:17;;;;;;;9.50;7.60;;;21.20;42.30;;;;;;5008693;28;20470;-91
2022/04/29 09:56:05;;;;;;;9.80;8.80;;;21.30;43.00;;;;;;5010361;28;20461;-91
2022/04/29 09:58:32;;;;;;;10.27;9.17;;;21.40;42.50;;;;;;5013079;28;21271;-90
2022/04/29 10:01:00;;;;;;;9.23;7.20;;;21.60;42.50;;;;;;4995579;28;20484;-90
2022/04/29 10:03:28;;;;;;;8.77;7.73;;;21.80;42.70;;;;;;5012528;28;20509;-90
2022/04/29 10:05:57;;;;;;;13.90;8.57;;;22.10;43.20;;;;;;5026051;28;20965;-90
2022/04/29 10:08:26;;;;;;;7.77;6.50;;;22.40;41.20;;;;;;5015171;28;21130;-90
2022/04/29 10:10:55;;;;;;;7.37;6.20;;;22.30;39.20;;;;;;5029517;28;20445;-91
2022/04/29 10:13:23;;;;;;;7.87;6.97;;;22.60;37.60;;;;;;5015768;28;20454;-91
2022/04/29 10:16:14;;;;;;;9.13;6.63;;;22.80;39.00;;;;;;5013024;28;20464;-90
2022/04/29 10:21:57;;;;;;;7.27;6.43;;;22.50;37.70;;;;;;4997727;28;20446;-89
2022/04/29 10:24:25;;;;;;;7.23;5.83;;;23.00;36.20;;;;;;5014048;28;20473;-90
2022/04/29 10:26:54;;;;;;;6.57;5.90;;;23.20;34.10;;;;;;4997628;28;20540;-89
2022/04/29 10:29:21;;;;;;;6.07;5.57;;;23.20;33.50;;;;;;5035587;28;20445;-90
2022/04/29 10:32:07;;;;;;;6.30;5.40;;;23.20;32.60;;;;;;5011439;28;20437;-91
2022/04/29 10:34:36;;;;;;;10.50;6.30;;;23.30;33.10;;;;;;5010144;28;20465;-90
2022/04/29 10:37:12;;;;;;;13.53;6.10;;;23.30;33.00;;;;;;4986258;28;20477;-90
2022/04/29 10:39:39;;;;;;;11.70;5.23;;;23.10;33.20;;;;;;5011841;28;20489;-91
2022/04/29 10:42:09;;;;;;;8.33;6.67;;;23.00;35.20;;;;;;5023410;28;20445;-91
2022/04/29 10:45:00;;;;;;;6.03;5.47;;;23.50;33.50;;;;;;5025239;28;20660;-90
2022/04/29 10:47:31;;;;;;;7.70;5.60;;;23.70;32.50;;;;;;5014393;28;20445;-91
2022/04/29 10:50:38;;;;;;;11.20;5.60;;;23.40;31.70;;;;;;4996142;28;20605;-90
2022/04/29 10:53:24;;;;;;;6.53;4.53;;;22.90;33.10;;;;;;5020790;28;20458;-91
2022/04/29 10:56:36;;;;;;;5.87;5.27;;;23.00;32.40;;;;;;5036046;28;20453;-91
2022/04/29 10:59:14;;;;;;;6.70;5.20;;;23.20;30.80;;;;;;5016999;28;20453;-91
2022/04/29 11:01:47;;;;;;;7.40;5.87;;;23.30;30.90;;;;;;4989930;28;20862;-91
2022/04/29 11:04:42;;;;;;;6.77;4.53;;;23.60;30.30;;;;;;5023540;28;20467;-92
2022/04/29 11:07:37;;;;;;;9.33;5.20;;;24.00;29.00;;;;;;5004881;28;20553;-90
2022/04/29 11:10:09;;;;;;;6.23;4.87;;;24.20;27.90;;;;;;5011347;28;20454;-90
2022/04/29 11:12:39;;;;;;;5.07;4.57;;;24.30;27.70;;;;;;5022232;28;20452;-92
2022/04/29 11:15:39;;;;;;;7.53;5.33;;;24.30;28.10;;;;;;5018791;28;20503;-91
2022/04/29 11:18:23;;;;;;;5.60;5.10;;;24.00;29.10;;;;;;5031151;28;20454;-91
2022/04/29 11:20:56;;;;;;;9.37;4.80;;;24.10;29.60;;;;;;5010479;28;20440;-94
2022/04/29 11:26:18;;;;;;;4.17;3.87;;;24.20;28.70;;;;;;5025371;28;20458;-95
2022/04/29 11:28:52;;;;;;;3.57;3.27;;;24.00;28.80;;;;;;5005653;28;20473;-95
2022/04/29 11:31:49;;;;;;;4.17;3.40;;;24.00;27.10;;;;;;4994820;28;20477;-95
2022/04/29 11:34:17;;;;;;;3.20;2.90;;;24.40;27.00;;;;;;5010696;28;20473;-92
2022/04/29 11:36:44;;;;;;;5.20;4.70;;;24.70;26.70;;;;;;5004895;28;20474;-90
2022/04/29 11:39:17;;;;;;;5.20;3.47;;;25.10;26.80;;;;;;5019382;28;20496;-90
2022/04/29 11:41:55;;;;;;;4.00;3.63;;;25.30;26.40;;;;;;5026435;28;20436;-89
2022/04/29 11:44:35;;;;;;;4.70;4.30;;;25.40;25.60;;;;;;5010757;28;20497;-87
2022/04/29 11:47:03;;;;;;;5.00;4.60;;;25.40;26.60;;;;;;5011636;28;20446;-87
2022/04/29 11:49:32;;;;;;;4.73;4.27;;;25.50;26.10;;;;;;5032671;28;21181;-86
2022/04/29 11:52:20;;;;;;;4.43;4.03;;;25.40;25.80;;;;;;5020300;28;20458;-89
2022/04/29 11:54:53;;;;;;;4.90;4.50;;;25.30;27.10;;;;;;5009402;28;20469;-87
2022/04/29 11:57:20;;;;;;;4.10;3.70;;;25.20;26.40;;;;;;4997078;28;20450;-88
2022/04/29 11:59:48;;;;;;;4.83;4.23;;;25.00;27.10;;;;;;4999385;28;20439;-90
2022/04/29 12:02:18;;;;;;;4.70;4.30;;;25.10;27.50;;;;;;5019855;28;20454;-89
2022/04/29 12:04:56;;;;;;;4.83;4.40;;;25.50;27.70;;;;;;5007567;28;20548;-89
2022/04/29 12:07:24;;;;;;;7.50;4.20;;;25.60;26.80;;;;;;5032329;28;20533;-89
2022/04/29 12:09:54;;;;;;;4.60;4.10;;;25.40;26.40;;;;;;5010904;28;20451;-88
2022/04/29 12:12:25;;;;;;;4.33;4.03;;;25.30;27.70;;;;;;5030736;28;20457;-89
2022/04/29 12:14:52;;;;;;;5.13;4.03;;;25.40;27.50;;;;;;5029562;28;20855;-88
2022/04/29 12:17:21;;;;;;;4.67;4.27;;;25.10;26.60;;;;;;4998757;28;20772;-89
2022/04/29 12:19:56;;;;;;;5.57;4.57;;;24.90;26.10;;;;;;5010484;28;20460;-90
2022/04/29 12:22:31;;;;;;;6.13;3.80;;;24.90;26.40;;;;;;5012943;28;20440;-90
2022/04/29 12:25:14;;;;;;;5.33;4.30;;;25.20;27.00;;;;;;5029539;28;20453;-89
2022/04/29 12:27:41;;;;;;;5.47;4.97;;;25.40;26.30;;;;;;5031689;28;20457;-88
2022/04/29 12:36:06;;;;;;;4.43;4.13;;;25.10;27.20;;;;;;5007681;28;20481;-88
2022/04/29 12:38:35;;;;;;;6.63;4.47;;;25.30;27.40;;;;;;5026453;28;20480;-89
2022/04/29 12:41:16;;;;;;;4.57;4.27;;;25.20;26.70;;;;;;4993047;28;20458;-89
2022/04/29 12:43:43;;;;;;;4.70;4.07;;;25.20;27.00;;;;;;5009689;28;20523;-89
2022/04/29 12:46:14;;;;;;;4.60;4.20;;;25.30;28.00;;;;;;5008124;28;20478;-89
2022/04/29 12:48:50;;;;;;;10.83;4.80;;;25.40;27.00;;;;;;5010869;28;20457;-88
2022/04/29 12:51:31;;;;;;;4.67;4.27;;;25.10;27.10;;;;;;5002711;28;20438;-88
2022/04/29 12:53:59;;;;;;;7.33;4.10;;;25.10;27.60;;;;;;5011680;28;20478;-88
2022/04/29 12:56:29;;;;;;;4.70;3.90;;;25.10;26.50;;;;;;5011391;28;20520;-90
2022/04/29 12:58:57;;;;;;;6.63;4.27;;;25.30;27.10;;;;;;5023319;28;20453;-90
2022/04/29 13:01:24;;;;;;;7.53;4.30;;;25.40;26.60;;;;;;5016986;28;20470;-90
2022/04/29 13:03:58;;;;;;;4.40;4.00;;;25.60;26.40;;;;;;5011937;28;20466;-88
2022/04/29 13:06:31;;;;;;;5.03;4.53;;;25.80;25.80;;;;;;5033752;28;20457;-89
2022/04/29 13:08:59;;;;;;;5.53;4.10;;;25.90;25.40;;;;;;5009452;28;21155;-90
2022/04/29 13:11:29;;;;;;;4.20;3.90;;;25.90;26.30;;;;;;5032682;28;20490;-90
2022/04/29 13:13:56;;;;;;;5.50;4.10;;;25.90;25.60;;;;;;4997439;28;20469;-86
2022/04/29 13:16:24;;;;;;;4.20;3.90;;;25.90;26.00;;;;;;5013204;28;20481;-87
2022/04/29 13:18:53;;;;;;;6.10;3.63;;;25.80;26.70;;;;;;4982571;28;20827;-88
2022/04/29 13:21:21;;;;;;;7.53;4.43;;;25.90;26.70;;;;;;4998300;28;20450;-84
2022/04/29 13:23:55;;;;;;;5.07;3.73;;;25.90;25.30;;;;;;4996689;28;20505;-85
2022/04/29 13:26:31;;;;;;;4.50;4.10;;;25.90;26.80;;;;;;5013774;28;20454;-86
2022/04/29 13:28:59;;;;;;;5.23;3.90;;;25.80;26.70;;;;;;5002612;28;20455;-87
2022/04/29 13:31:27;;;;;;;6.10;3.90;;;25.60;25.10;;;;;;5033039;28;20508;-88
2022/04/29 13:33:53;;;;;;;4.43;4.03;;;25.40;26.80;;;;;;4997822;28;20562;-87
2022/04/29 13:36:21;;;;;;;6.30;4.30;;;25.50;26.80;;;;;;5017292;28;20481;-86
2022/04/29 13:38:48;;;;;;;4.00;3.70;;;25.60;25.60;;;;;;5020636;28;21285;-88
2022/04/29 13:41:17;;;;;;;5.17;4.53;;;25.50;24.90;;;;;;5015981;28;20438;-85
2022/04/29 13:43:46;;;;;;;4.40;3.83;;;25.50;25.60;;;;;;5024183;28;20491;-87